sensor_id;sensor_type;location;lat;lon;timestamp;P1;durP1;ratioP1;P2;durP2;ratioP2
76332;SDS011;71254;53.010;6.508;2023-11-19T09:15:33;32.53;;;8.52;;
76332;SDS011;71254;53.010;6.508;2023-11-19T09:17:59;35.30;;;7.80;;
76332;SDS011;71254;53.010;6.508;2023-11-19T09:20:25;30.23;;;7.65;;
76332;SDS011;71254;53.010;6.508;2023-11-19T09:22:50;36.17;;;7.95;;
76332;SDS011;71254;53.010;6.508;2023-11-19T09:25:16;33.20;;;7.20;;
76332;SDS011;71254;53.010;6.508;2023-11-19T09:27:50;42.25;;;9.65;;
76332;SDS011;71254;53.010;6.508;2023-11-19T09:30:16;30.75;;;7.38;;
76332;SDS011;71254;53.010;6.508;2023-11-19T09:32:42;42.35;;;8.88;;
76332;SDS011;71254;53.010;6.508;2023-11-19T09:35:07;35.88;;;10.32;;
76332;SDS011;71254;53.010;6.508;2023-11-19T09:37:33;35.85;;;8.02;;
76332;SDS011;71254;53.010;6.508;2023-11-19T09:39:59;34.78;;;7.80;;
76332;SDS011;71254;53.010;6.508;2023-11-19T09:42:25;31.88;;;7.53;;
76332;SDS011;71254;53.010;6.508;2023-11-19T09:44:51;37.15;;;7.57;;
76332;SDS011;71254;53.010;6.508;2023-11-19T09:47:26;28.67;;;7.88;;
76332;SDS011;71254;53.010;6.508;2023-11-19T09:49:52;35.38;;;8.02;;
76332;SDS011;71254;53.010;6.508;2023-11-19T09:52:19;30.95;;;7.30;;
76332;SDS011;71254;53.010;6.508;2023-11-19T09:54:44;31.52;;;8.38;;
76332;SDS011;71254;53.010;6.508;2023-11-19T09:57:16;29.73;;;7.05;;
76332;SDS011;71254;53.010;6.508;2023-11-19T09:59:42;36.20;;;7.57;;
76332;SDS011;71254;53.010;6.508;2023-11-19T10:02:09;30.02;;;7.03;;
76332;SDS011;71254;53.010;6.508;2023-11-19T10:04:37;36.25;;;7.18;;
76332;SDS011;71254;53.010;6.508;2023-11-19T10:07:16;34.47;;;7.30;;
76332;SDS011;71254;53.010;6.508;2023-11-19T10:09:50;30.23;;;6.28;;
76332;SDS011;71254;53.010;6.508;2023-11-19T10:12:16;33.00;;;7.68;;
76332;SDS011;71254;53.010;6.508;2023-11-19T10:14:42;26.92;;;7.53;;
76332;SDS011;71254;53.010;6.508;2023-11-19T10:17:15;31.20;;;7.15;;
76332;SDS011;71254;53.010;6.508;2023-11-19T10:19:41;37.72;;;8.65;;
76332;SDS011;71254;53.010;6.508;2023-11-19T10:22:06;33.53;;;6.88;;
76332;SDS011;71254;53.010;6.508;2023-11-19T10:24:35;31.70;;;7.28;;
76332;SDS011;71254;53.010;6.508;2023-11-19T10:27:06;27.65;;;7.45;;
76332;SDS011;71254;53.010;6.508;2023-11-19T10:29:36;34.65;;;6.60;;
76332;SDS011;71254;53.010;6.508;2023-11-19T10:32:11;33.22;;;7.47;;
76332;SDS011;71254;53.010;6.508;2023-11-19T10:34:38;35.33;;;8.15;;
76332;SDS011;71254;53.010;6.508;2023-11-19T10:37:04;30.88;;;6.47;;
76332;SDS011;71254;53.010;6.508;2023-11-19T10:42:19;25.05;;;6.55;;
76332;SDS011;71254;53.010;6.508;2023-11-19T10:44:45;32.05;;;7.60;;
76332;SDS011;71254;53.010;6.508;2023-11-19T10:47:14;33.47;;;8.05;;
76332;SDS011;71254;53.010;6.508;2023-11-19T10:49:45;30.45;;;6.95;;
76332;SDS011;71254;53.010;6.508;2023-11-19T10:52:11;35.72;;;7.40;;
76332;SDS011;71254;53.010;6.508;2023-11-19T10:54:42;35.97;;;7.50;;
76332;SDS011;71254;53.010;6.508;2023-11-19T10:57:17;33.63;;;7.00;;
76332;SDS011;71254;53.010;6.508;2023-11-19T10:59:49;34.22;;;7.95;;
76332;SDS011;71254;53.010;6.508;2023-11-19T11:02:28;33.55;;;7.57;;
76332;SDS011;71254;53.010;6.508;2023-11-19T11:04:59;32.85;;;8.00;;
76332;SDS011;71254;53.010;6.508;2023-11-19T11:07:27;30.55;;;7.55;;
76332;SDS011;71254;53.010;6.508;2023-11-19T11:09:58;34.40;;;8.32;;
76332;SDS011;71254;53.010;6.508;2023-11-19T11:12:26;31.55;;;7.25;;
76332;SDS011;71254;53.010;6.508;2023-11-19T11:14:53;39.25;;;7.65;;
76332;SDS011;71254;53.010;6.508;2023-11-19T11:17:20;31.25;;;7.15;;
76332;SDS011;71254;53.010;6.508;2023-11-19T11:19:57;39.30;;;7.43;;
76332;SDS011;71254;53.010;6.508;2023-11-19T11:22:38;33.45;;;7.90;;
76332;SDS011;71254;53.010;6.508;2023-11-19T11:31:29;41.78;;;9.68;;
76332;SDS011;71254;53.010;6.508;2023-11-19T11:34:06;34.05;;;9.50;;
76332;SDS011;71254;53.010;6.508;2023-11-19T11:39:17;37.33;;;8.82;;
76332;SDS011;71254;53.010;6.508;2023-11-19T11:41:47;38.75;;;8.13;;
76332;SDS011;71254;53.010;6.508;2023-11-19T11:44:12;42.47;;;9.93;;
76332;SDS011;71254;53.010;6.508;2023-11-19T11:46:55;36.67;;;9.10;;
76332;SDS011;71254;53.010;6.508;2023-11-19T11:49:25;32.00;;;7.57;;
76332;SDS011;71254;53.010;6.508;2023-11-19T11:52:00;28.85;;;8.63;;
76332;SDS011;71254;53.010;6.508;2023-11-19T11:54:28;26.25;;;7.65;;
76332;SDS011;71254;53.010;6.508;2023-11-19T11:57:13;35.58;;;6.95;;
76332;SDS011;71254;53.010;6.508;2023-11-19T12:02:10;28.23;;;7.63;;
76332;SDS011;71254;53.010;6.508;2023-11-19T12:04:41;32.55;;;7.68;;
76332;SDS011;71254;53.010;6.508;2023-11-19T12:09:47;28.15;;;7.10;;
76332;SDS011;71254;53.010;6.508;2023-11-19T12:12:21;32.03;;;7.50;;
76332;SDS011;71254;53.010;6.508;2023-11-19T12:20:10;28.88;;;6.30;;
76332;SDS011;71254;53.010;6.508;2023-11-19T12:22:40;28.50;;;6.45;;
76332;SDS011;71254;53.010;6.508;2023-11-19T12:25:14;29.45;;;6.97;;
76332;SDS011;71254;53.010;6.508;2023-11-19T12:27:45;29.73;;;7.32;;
76332;SDS011;71254;53.010;6.508;2023-11-19T12:30:12;28.77;;;7.57;;
76332;SDS011;71254;53.010;6.508;2023-11-19T12:32:56;33.58;;;7.50;;
76332;SDS011;71254;53.010;6.508;2023-11-19T12:35:22;28.20;;;6.20;;
76332;SDS011;71254;53.010;6.508;2023-11-19T12:37:51;31.85;;;6.38;;
76332;SDS011;71254;53.010;6.508;2023-11-19T12:40:21;24.40;;;6.57;;
76332;SDS011;71254;53.010;6.508;2023-11-19T12:42:48;27.55;;;6.22;;
76332;SDS011;71254;53.010;6.508;2023-11-19T12:45:16;31.55;;;6.60;;
76332;SDS011;71254;53.010;6.508;2023-11-19T12:47:42;26.15;;;5.80;;
76332;SDS011;71254;53.010;6.508;2023-11-19T12:50:09;24.40;;;5.82;;
76332;SDS011;71254;53.010;6.508;2023-11-19T12:52:38;25.35;;;6.13;;
76332;SDS011;71254;53.010;6.508;2023-11-19T12:55:05;25.15;;;6.00;;
76332;SDS011;71254;53.010;6.508;2023-11-19T12:57:52;31.45;;;6.05;;
76332;SDS011;71254;53.010;6.508;2023-11-19T13:00:20;27.73;;;6.68;;
76332;SDS011;71254;53.010;6.508;2023-11-19T13:02:47;27.58;;;6.05;;
76332;SDS011;71254;53.010;6.508;2023-11-19T13:07:49;25.48;;;6.78;;
76332;SDS011;71254;53.010;6.508;2023-11-19T13:10:18;23.83;;;5.60;;
76332;SDS011;71254;53.010;6.508;2023-11-19T13:12:43;25.70;;;5.65;;
76332;SDS011;71254;53.010;6.508;2023-11-19T13:15:24;25.08;;;5.47;;
76332;SDS011;71254;53.010;6.508;2023-11-19T13:17:51;23.42;;;6.45;;
76332;SDS011;71254;53.010;6.508;2023-11-19T13:20:16;24.52;;;5.75;;
76332;SDS011;71254;53.010;6.508;2023-11-19T13:23:05;21.30;;;5.15;;
76332;SDS011;71254;53.010;6.508;2023-11-19T13:25:40;24.38;;;5.70;;
76332;SDS011;71254;53.010;6.508;2023-11-19T13:28:05;22.38;;;5.65;;
76332;SDS011;71254;53.010;6.508;2023-11-19T13:30:31;33.45;;;6.25;;
76332;SDS011;71254;53.010;6.508;2023-11-19T13:32:57;26.33;;;6.22;;
76332;SDS011;71254;53.010;6.508;2023-11-19T13:35:22;26.67;;;6.72;;
76332;SDS011;71254;53.010;6.508;2023-11-19T13:37:48;24.80;;;5.82;;
76332;SDS011;71254;53.010;6.508;2023-11-19T13:40:17;25.40;;;5.50;;
76332;SDS011;71254;53.010;6.508;2023-11-19T13:42:44;24.90;;;5.75;;
76332;SDS011;71254;53.010;6.508;2023-11-19T13:45:10;28.60;;;5.90;;
76332;SDS011;71254;53.010;6.508;2023-11-19T13:47:38;30.48;;;6.28;;
76332;SDS011;71254;53.010;6.508;2023-11-19T13:50:08;27.20;;;6.63;;
76332;SDS011;71254;53.010;6.508;2023-11-19T13:52:39;22.65;;;6.30;;
76332;SDS011;71254;53.010;6.508;2023-11-19T13:55:07;28.23;;;6.13;;
76332;SDS011;71254;53.010;6.508;2023-11-19T13:57:36;33.63;;;7.75;;
76332;SDS011;71254;53.010;6.508;2023-11-19T14:00:06;25.40;;;5.60;;
76332;SDS011;71254;53.010;6.508;2023-11-19T14:02:40;25.35;;;5.97;;
76332;SDS011;71254;53.010;6.508;2023-11-19T14:05:07;23.17;;;7.13;;
76332;SDS011;71254;53.010;6.508;2023-11-19T14:07:34;20.30;;;5.53;;
76332;SDS011;71254;53.010;6.508;2023-11-19T14:10:00;23.30;;;6.25;;
76332;SDS011;71254;53.010;6.508;2023-11-19T14:12:26;27.83;;;6.05;;
76332;SDS011;71254;53.010;6.508;2023-11-19T14:14:51;23.77;;;6.03;;
76332;SDS011;71254;53.010;6.508;2023-11-19T14:17:27;26.17;;;5.70;;
76332;SDS011;71254;53.010;6.508;2023-11-19T14:19:53;23.38;;;5.50;;
76332;SDS011;71254;53.010;6.508;2023-11-19T14:22:21;29.58;;;6.88;;
76332;SDS011;71254;53.010;6.508;2023-11-19T14:24:47;22.83;;;5.53;;
76332;SDS011;71254;53.010;6.508;2023-11-19T14:27:15;20.98;;;5.38;;
76332;SDS011;71254;53.010;6.508;2023-11-19T14:29:42;26.98;;;6.25;;
76332;SDS011;71254;53.010;6.508;2023-11-19T14:32:08;29.73;;;7.53;;
76332;SDS011;71254;53.010;6.508;2023-11-19T14:34:33;30.17;;;6.93;;
76332;SDS011;71254;53.010;6.508;2023-11-19T14:36:59;22.23;;;6.88;;
76332;SDS011;71254;53.010;6.508;2023-11-19T14:39:25;26.50;;;6.65;;
76332;SDS011;71254;53.010;6.508;2023-11-19T14:41:54;29.05;;;5.68;;
76332;SDS011;71254;53.010;6.508;2023-11-19T14:44:25;27.60;;;6.07;;
76332;SDS011;71254;53.010;6.508;2023-11-19T14:46:57;20.75;;;5.25;;
76332;SDS011;71254;53.010;6.508;2023-11-19T14:49:32;22.20;;;5.50;;
76332;SDS011;71254;53.010;6.508;2023-11-19T14:52:03;24.80;;;5.82;;
76332;SDS011;71254;53.010;6.508;2023-11-19T14:54:30;26.30;;;5.85;;
76332;SDS011;71254;53.010;6.508;2023-11-19T14:56:56;20.05;;;4.88;;
76332;SDS011;71254;53.010;6.508;2023-11-19T14:59:22;23.65;;;6.05;;
76332;SDS011;71254;53.010;6.508;2023-11-19T15:01:48;31.17;;;6.55;;
76332;SDS011;71254;53.010;6.508;2023-11-19T15:04:13;25.38;;;5.47;;
76332;SDS011;71254;53.010;6.508;2023-11-19T15:06:39;26.55;;;6.43;;
76332;SDS011;71254;53.010;6.508;2023-11-19T15:09:05;22.23;;;4.97;;
76332;SDS011;71254;53.010;6.508;2023-11-19T15:11:35;31.17;;;6.20;;
76332;SDS011;71254;53.010;6.508;2023-11-19T15:14:03;26.13;;;6.45;;
76332;SDS011;71254;53.010;6.508;2023-11-19T15:16:31;21.83;;;5.63;;
76332;SDS011;71254;53.010;6.508;2023-11-19T15:18:59;19.70;;;5.18;;
76332;SDS011;71254;53.010;6.508;2023-11-19T15:21:25;28.48;;;5.75;;
76332;SDS011;71254;53.010;6.508;2023-11-19T15:23:52;21.38;;;5.32;;
76332;SDS011;71254;53.010;6.508;2023-11-19T15:29:01;29.33;;;7.65;;
76332;SDS011;71254;53.010;6.508;2023-11-19T15:31:27;24.45;;;5.60;;
76332;SDS011;71254;53.010;6.508;2023-11-19T15:33:53;28.17;;;7.07;;
76332;SDS011;71254;53.010;6.508;2023-11-19T15:36:28;22.60;;;5.30;;
76332;SDS011;71254;53.010;6.508;2023-11-19T15:38:54;29.80;;;6.07;;
76332;SDS011;71254;53.010;6.508;2023-11-19T15:41:19;29.30;;;6.05;;
76332;SDS011;71254;53.010;6.508;2023-11-19T15:43:45;24.30;;;6.18;;
76332;SDS011;71254;53.010;6.508;2023-11-19T15:46:11;27.90;;;5.72;;
76332;SDS011;71254;53.010;6.508;2023-11-19T15:48:36;27.17;;;6.13;;
76332;SDS011;71254;53.010;6.508;2023-11-19T15:51:03;29.20;;;5.35;;
76332;SDS011;71254;53.010;6.508;2023-11-19T15:53:32;26.25;;;6.80;;
76332;SDS011;71254;53.010;6.508;2023-11-19T15:56:00;19.75;;;4.72;;
76332;SDS011;71254;53.010;6.508;2023-11-19T15:58:28;22.70;;;6.57;;
76332;SDS011;71254;53.010;6.508;2023-11-19T16:00:54;22.27;;;6.45;;
76332;SDS011;71254;53.010;6.508;2023-11-19T16:03:20;32.22;;;6.13;;
76332;SDS011;71254;53.010;6.508;2023-11-19T16:05:46;30.17;;;6.57;;
76332;SDS011;71254;53.010;6.508;2023-11-19T16:08:13;31.02;;;5.95;;
76332;SDS011;71254;53.010;6.508;2023-11-19T16:10:39;24.48;;;5.97;;
76332;SDS011;71254;53.010;6.508;2023-11-19T16:13:09;27.00;;;5.50;;
76332;SDS011;71254;53.010;6.508;2023-11-19T16:15:35;26.20;;;5.70;;
76332;SDS011;71254;53.010;6.508;2023-11-19T16:18:06;24.80;;;6.10;;
76332;SDS011;71254;53.010;6.508;2023-11-19T16:20:34;28.60;;;6.35;;
76332;SDS011;71254;53.010;6.508;2023-11-19T16:23:01;35.00;;;7.10;;
76332;SDS011;71254;53.010;6.508;2023-11-19T16:25:29;25.98;;;5.43;;
76332;SDS011;71254;53.010;6.508;2023-11-19T16:28:02;26.05;;;5.65;;
76332;SDS011;71254;53.010;6.508;2023-11-19T16:30:28;23.60;;;5.15;;
76332;SDS011;71254;53.010;6.508;2023-11-19T16:32:56;25.70;;;5.38;;
76332;SDS011;71254;53.010;6.508;2023-11-19T16:37:49;30.77;;;5.72;;
76332;SDS011;71254;53.010;6.508;2023-11-19T16:40:15;26.55;;;5.88;;
76332;SDS011;71254;53.010;6.508;2023-11-19T16:42:41;25.63;;;6.15;;
76332;SDS011;71254;53.010;6.508;2023-11-19T16:45:10;33.10;;;7.07;;
76332;SDS011;71254;53.010;6.508;2023-11-19T16:47:35;27.95;;;6.85;;
76332;SDS011;71254;53.010;6.508;2023-11-19T16:50:01;29.38;;;6.28;;
76332;SDS011;71254;53.010;6.508;2023-11-19T16:52:28;23.30;;;6.63;;
76332;SDS011;71254;53.010;6.508;2023-11-19T16:54:57;28.65;;;6.15;;
76332;SDS011;71254;53.010;6.508;2023-11-19T16:57:22;29.23;;;6.05;;
76332;SDS011;71254;53.010;6.508;2023-11-19T16:59:48;32.25;;;6.00;;
76332;SDS011;71254;53.010;6.508;2023-11-19T17:02:20;30.60;;;6.20;;
76332;SDS011;71254;53.010;6.508;2023-11-19T17:04:46;31.45;;;6.82;;
76332;SDS011;71254;53.010;6.508;2023-11-19T17:07:11;26.00;;;5.68;;
76332;SDS011;71254;53.010;6.508;2023-11-19T17:09:37;31.63;;;6.57;;
76332;SDS011;71254;53.010;6.508;2023-11-19T17:12:04;34.78;;;7.05;;
76332;SDS011;71254;53.010;6.508;2023-11-19T17:14:31;33.30;;;7.05;;
76332;SDS011;71254;53.010;6.508;2023-11-19T17:16:59;31.17;;;6.60;;
76332;SDS011;71254;53.010;6.508;2023-11-19T17:19:28;28.58;;;6.68;;
76332;SDS011;71254;53.010;6.508;2023-11-19T17:21:54;27.42;;;6.07;;
76332;SDS011;71254;53.010;6.508;2023-11-19T17:24:20;28.83;;;5.47;;
76332;SDS011;71254;53.010;6.508;2023-11-19T17:26:45;28.20;;;6.50;;
76332;SDS011;71254;53.010;6.508;2023-11-19T17:29:11;25.27;;;5.40;;
76332;SDS011;71254;53.010;6.508;2023-11-19T17:31:40;25.35;;;5.82;;
76332;SDS011;71254;53.010;6.508;2023-11-19T17:34:14;32.38;;;7.70;;
76332;SDS011;71254;53.010;6.508;2023-11-19T17:36:39;31.30;;;7.82;;
76332;SDS011;71254;53.010;6.508;2023-11-19T17:39:05;28.45;;;6.53;;
76332;SDS011;71254;53.010;6.508;2023-11-19T17:41:34;26.80;;;6.30;;
76332;SDS011;71254;53.010;6.508;2023-11-19T17:43:59;32.25;;;6.35;;
76332;SDS011;71254;53.010;6.508;2023-11-19T17:46:29;38.75;;;7.63;;
76332;SDS011;71254;53.010;6.508;2023-11-19T17:48:57;28.48;;;6.38;;
76332;SDS011;71254;53.010;6.508;2023-11-19T17:51:26;22.95;;;5.97;;
76332;SDS011;71254;53.010;6.508;2023-11-19T17:53:52;28.20;;;6.28;;
76332;SDS011;71254;53.010;6.508;2023-11-19T17:56:18;29.95;;;6.18;;
76332;SDS011;71254;53.010;6.508;2023-11-19T17:58:43;33.70;;;6.40;;
76332;SDS011;71254;53.010;6.508;2023-11-19T18:01:09;28.05;;;6.63;;
76332;SDS011;71254;53.010;6.508;2023-11-19T18:03:36;31.88;;;6.90;;
76332;SDS011;71254;53.010;6.508;2023-11-19T18:06:02;31.40;;;7.35;;
76332;SDS011;71254;53.010;6.508;2023-11-19T18:08:33;35.53;;;7.57;;
76332;SDS011;71254;53.010;6.508;2023-11-19T18:11:00;31.95;;;7.22;;
76332;SDS011;71254;53.010;6.508;2023-11-19T18:13:26;31.83;;;7.60;;
76332;SDS011;71254;53.010;6.508;2023-11-19T18:15:51;26.67;;;7.28;;
76332;SDS011;71254;53.010;6.508;2023-11-19T18:18:18;36.05;;;7.53;;
76332;SDS011;71254;53.010;6.508;2023-11-19T18:20:44;30.63;;;7.68;;
76332;SDS011;71254;53.010;6.508;2023-11-19T18:23:10;32.95;;;8.38;;
76332;SDS011;71254;53.010;6.508;2023-11-19T18:25:39;25.98;;;7.90;;
76332;SDS011;71254;53.010;6.508;2023-11-19T18:28:07;40.03;;;8.90;;
76332;SDS011;71254;53.010;6.508;2023-11-19T18:30:33;36.13;;;9.52;;
76332;SDS011;71254;53.010;6.508;2023-11-19T18:32:58;36.58;;;8.68;;
76332;SDS011;71254;53.010;6.508;2023-11-19T18:35:24;38.40;;;9.13;;
76332;SDS011;71254;53.010;6.508;2023-11-19T18:37:50;37.03;;;8.48;;
76332;SDS011;71254;53.010;6.508;2023-11-19T18:40:15;30.08;;;8.70;;
76332;SDS011;71254;53.010;6.508;2023-11-19T18:42:44;44.95;;;8.90;;
76332;SDS011;71254;53.010;6.508;2023-11-19T18:45:12;41.80;;;9.05;;
76332;SDS011;71254;53.010;6.508;2023-11-19T18:47:43;37.60;;;8.55;;
76332;SDS011;71254;53.010;6.508;2023-11-19T18:50:09;40.40;;;8.93;;
76332;SDS011;71254;53.010;6.508;2023-11-19T18:52:38;41.70;;;8.02;;
76332;SDS011;71254;53.010;6.508;2023-11-19T18:55:04;40.50;;;9.10;;
76332;SDS011;71254;53.010;6.508;2023-11-19T18:57:31;39.25;;;8.63;;
76332;SDS011;71254;53.010;6.508;2023-11-19T18:59:56;39.15;;;9.07;;
76332;SDS011;71254;53.010;6.508;2023-11-19T19:02:33;33.92;;;8.45;;
76332;SDS011;71254;53.010;6.508;2023-11-19T19:05:25;35.85;;;8.25;;
76332;SDS011;71254;53.010;6.508;2023-11-19T19:08:02;35.30;;;7.97;;
76332;SDS011;71254;53.010;6.508;2023-11-19T19:10:28;31.08;;;7.88;;
76332;SDS011;71254;53.010;6.508;2023-11-19T19:12:53;31.52;;;8.00;;
76332;SDS011;71254;53.010;6.508;2023-11-19T19:15:21;29.00;;;8.23;;
76332;SDS011;71254;53.010;6.508;2023-11-19T19:17:49;28.13;;;6.78;;
76332;SDS011;71254;53.010;6.508;2023-11-19T19:20:24;26.50;;;7.32;;
76332;SDS011;71254;53.010;6.508;2023-11-19T19:22:50;26.13;;;6.50;;
76332;SDS011;71254;53.010;6.508;2023-11-19T19:25:16;25.73;;;6.40;;
76332;SDS011;71254;53.010;6.508;2023-11-19T19:27:41;23.88;;;7.03;;
76332;SDS011;71254;53.010;6.508;2023-11-19T19:30:08;22.73;;;7.10;;
76332;SDS011;71254;53.010;6.508;2023-11-19T19:32:35;25.73;;;6.28;;
76332;SDS011;71254;53.010;6.508;2023-11-19T19:35:00;23.65;;;6.03;;
76332;SDS011;71254;53.010;6.508;2023-11-19T19:37:29;23.88;;;5.80;;
76332;SDS011;71254;53.010;6.508;2023-11-19T19:39:55;20.77;;;5.80;;
76332;SDS011;71254;53.010;6.508;2023-11-19T19:42:21;24.80;;;6.22;;
76332;SDS011;71254;53.010;6.508;2023-11-19T19:44:48;20.35;;;5.72;;
76332;SDS011;71254;53.010;6.508;2023-11-19T19:47:19;13.25;;;5.13;;
76332;SDS011;71254;53.010;6.508;2023-11-19T19:49:46;13.70;;;4.72;;
76332;SDS011;71254;53.010;6.508;2023-11-19T19:52:11;12.50;;;4.38;;
76332;SDS011;71254;53.010;6.508;2023-11-19T19:54:37;12.85;;;4.85;;
76332;SDS011;71254;53.010;6.508;2023-11-19T19:57:03;15.35;;;5.00;;
76332;SDS011;71254;53.010;6.508;2023-11-19T19:59:34;14.68;;;4.65;;
76332;SDS011;71254;53.010;6.508;2023-11-19T20:02:00;13.23;;;4.55;;
76332;SDS011;71254;53.010;6.508;2023-11-19T20:04:27;11.65;;;4.10;;
76332;SDS011;71254;53.010;6.508;2023-11-19T20:06:52;11.43;;;4.05;;
76332;SDS011;71254;53.010;6.508;2023-11-19T20:09:18;9.80;;;3.45;;
76332;SDS011;71254;53.010;6.508;2023-11-19T20:11:44;9.13;;;2.92;;
76332;SDS011;71254;53.010;6.508;2023-11-19T20:14:12;8.80;;;2.20;;
76332;SDS011;71254;53.010;6.508;2023-11-19T20:16:47;3.92;;;1.80;;
76332;SDS011;71254;53.010;6.508;2023-11-19T20:19:13;7.15;;;1.85;;
76332;SDS011;71254;53.010;6.508;2023-11-19T20:21:39;8.63;;;2.38;;
76332;SDS011;71254;53.010;6.508;2023-11-19T20:24:04;6.57;;;2.17;;
76332;SDS011;71254;53.010;6.508;2023-11-19T20:26:30;4.78;;;2.35;;
76332;SDS011;71254;53.010;6.508;2023-11-19T20:29:03;4.75;;;2.25;;
76332;SDS011;71254;53.010;6.508;2023-11-19T20:31:31;6.63;;;1.92;;
76332;SDS011;71254;53.010;6.508;2023-11-19T20:33:57;5.10;;;2.00;;
76332;SDS011;71254;53.010;6.508;2023-11-19T20:36:23;6.57;;;1.65;;
76332;SDS011;71254;53.010;6.508;2023-11-19T20:38:48;5.75;;;1.90;;
76332;SDS011;71254;53.010;6.508;2023-11-19T20:41:17;5.40;;;2.25;;
76332;SDS011;71254;53.010;6.508;2023-11-19T20:43:43;6.53;;;2.58;;
76332;SDS011;71254;53.010;6.508;2023-11-19T20:46:09;6.90;;;2.60;;
76332;SDS011;71254;53.010;6.508;2023-11-19T20:48:37;9.68;;;3.13;;
76332;SDS011;71254;53.010;6.508;2023-11-19T20:51:03;8.77;;;3.40;;
76332;SDS011;71254;53.010;6.508;2023-11-19T20:53:32;10.98;;;3.75;;
76332;SDS011;71254;53.010;6.508;2023-11-19T20:56:00;15.43;;;4.65;;
76332;SDS011;71254;53.010;6.508;2023-11-19T20:58:29;13.45;;;3.90;;
76332;SDS011;71254;53.010;6.508;2023-11-19T21:00:57;11.80;;;4.40;;
76332;SDS011;71254;53.010;6.508;2023-11-19T21:03:29;17.33;;;4.22;;
76332;SDS011;71254;53.010;6.508;2023-11-19T21:05:55;12.40;;;4.43;;
76332;SDS011;71254;53.010;6.508;2023-11-19T21:08:21;16.65;;;5.00;;
76332;SDS011;71254;53.010;6.508;2023-11-19T21:10:47;16.95;;;5.15;;
76332;SDS011;71254;53.010;6.508;2023-11-19T21:13:16;19.03;;;5.40;;
76332;SDS011;71254;53.010;6.508;2023-11-19T21:15:43;14.05;;;5.03;;
76332;SDS011;71254;53.010;6.508;2023-11-19T21:18:12;26.47;;;5.60;;
76332;SDS011;71254;53.010;6.508;2023-11-19T21:20:38;22.67;;;5.88;;
76332;SDS011;71254;53.010;6.508;2023-11-19T21:23:04;25.33;;;5.93;;
76332;SDS011;71254;53.010;6.508;2023-11-19T21:25:30;25.60;;;5.70;;
76332;SDS011;71254;53.010;6.508;2023-11-19T21:27:57;23.10;;;5.60;;
76332;SDS011;71254;53.010;6.508;2023-11-19T21:30:23;21.23;;;5.88;;
76332;SDS011;71254;53.010;6.508;2023-11-19T21:32:49;23.55;;;5.22;;
76332;SDS011;71254;53.010;6.508;2023-11-19T21:35:15;19.02;;;5.07;;
76332;SDS011;71254;53.010;6.508;2023-11-19T21:37:44;18.95;;;5.20;;
76332;SDS011;71254;53.010;6.508;2023-11-19T21:40:13;23.30;;;5.45;;
76332;SDS011;71254;53.010;6.508;2023-11-19T21:42:39;16.00;;;4.27;;
76332;SDS011;71254;53.010;6.508;2023-11-19T21:45:05;19.35;;;4.60;;
76332;SDS011;71254;53.010;6.508;2023-11-19T21:47:45;18.52;;;4.68;;
76332;SDS011;71254;53.010;6.508;2023-11-19T21:50:11;19.77;;;4.00;;
76332;SDS011;71254;53.010;6.508;2023-11-19T21:52:39;14.63;;;4.07;;
76332;SDS011;71254;53.010;6.508;2023-11-19T21:55:04;16.83;;;3.85;;
76332;SDS011;71254;53.010;6.508;2023-11-19T21:57:32;16.88;;;3.78;;
76332;SDS011;71254;53.010;6.508;2023-11-19T21:59:57;16.33;;;4.03;;
76332;SDS011;71254;53.010;6.508;2023-11-19T22:02:23;17.60;;;3.88;;
76332;SDS011;71254;53.010;6.508;2023-11-19T22:04:49;16.27;;;3.67;;
76332;SDS011;71254;53.010;6.508;2023-11-19T22:07:17;15.50;;;3.72;;
76332;SDS011;71254;53.010;6.508;2023-11-19T22:09:43;16.40;;;3.95;;
76332;SDS011;71254;53.010;6.508;2023-11-19T22:12:15;12.88;;;3.65;;
76332;SDS011;71254;53.010;6.508;2023-11-19T22:14:44;15.27;;;3.80;;
76332;SDS011;71254;53.010;6.508;2023-11-19T22:17:10;19.90;;;4.00;;
76332;SDS011;71254;53.010;6.508;2023-11-19T22:19:36;16.08;;;3.97;;
76332;SDS011;71254;53.010;6.508;2023-11-19T22:22:11;16.27;;;4.13;;
76332;SDS011;71254;53.010;6.508;2023-11-19T22:24:38;17.85;;;4.03;;
76332;SDS011;71254;53.010;6.508;2023-11-19T22:27:03;17.85;;;4.22;;
76332;SDS011;71254;53.010;6.508;2023-11-19T22:29:36;18.38;;;4.68;;
76332;SDS011;71254;53.010;6.508;2023-11-19T22:32:01;13.68;;;3.80;;
76332;SDS011;71254;53.010;6.508;2023-11-19T22:34:28;13.90;;;3.83;;
76332;SDS011;71254;53.010;6.508;2023-11-19T22:36:59;13.85;;;3.72;;
76332;SDS011;71254;53.010;6.508;2023-11-19T22:39:29;18.83;;;4.57;;
76332;SDS011;71254;53.010;6.508;2023-11-19T22:41:54;18.02;;;3.85;;
76332;SDS011;71254;53.010;6.508;2023-11-19T22:44:26;15.73;;;4.05;;
76332;SDS011;71254;53.010;6.508;2023-11-19T22:46:53;17.10;;;3.88;;
76332;SDS011;71254;53.010;6.508;2023-11-19T22:49:19;9.68;;;3.50;;
76332;SDS011;71254;53.010;6.508;2023-11-19T22:51:44;15.13;;;3.63;;
76332;SDS011;71254;53.010;6.508;2023-11-19T22:54:10;14.80;;;4.28;;
76332;SDS011;71254;53.010;6.508;2023-11-19T22:56:36;14.27;;;3.88;;
76332;SDS011;71254;53.010;6.508;2023-11-19T22:59:04;16.05;;;3.75;;
76332;SDS011;71254;53.010;6.508;2023-11-19T23:01:30;14.60;;;4.22;;
76332;SDS011;71254;53.010;6.508;2023-11-19T23:03:57;15.35;;;3.78;;
76332;SDS011;71254;53.010;6.508;2023-11-19T23:06:23;13.70;;;4.53;;
76332;SDS011;71254;53.010;6.508;2023-11-19T23:08:52;16.33;;;4.28;;
76332;SDS011;71254;53.010;6.508;2023-11-19T23:11:17;19.00;;;4.47;;
76332;SDS011;71254;53.010;6.508;2023-11-19T23:13:43;18.27;;;4.50;;
76332;SDS011;71254;53.010;6.508;2023-11-19T23:16:09;15.65;;;4.53;;
76332;SDS011;71254;53.010;6.508;2023-11-19T23:18:35;21.17;;;4.95;;
76332;SDS011;71254;53.010;6.508;2023-11-19T23:21:01;16.27;;;4.32;;
76332;SDS011;71254;53.010;6.508;2023-11-19T23:23:28;11.90;;;4.03;;
76332;SDS011;71254;53.010;6.508;2023-11-19T23:25:57;16.73;;;4.35;;
76332;SDS011;71254;53.010;6.508;2023-11-19T23:28:23;14.75;;;4.20;;
76332;SDS011;71254;53.010;6.508;2023-11-19T23:30:48;16.23;;;4.20;;
76332;SDS011;71254;53.010;6.508;2023-11-19T23:33:22;13.48;;;4.35;;
76332;SDS011;71254;53.010;6.508;2023-11-19T23:35:51;14.32;;;4.18;;
76332;SDS011;71254;53.010;6.508;2023-11-19T23:38:16;21.00;;;4.43;;
76332;SDS011;71254;53.010;6.508;2023-11-19T23:40:52;18.38;;;5.25;;
76332;SDS011;71254;53.010;6.508;2023-11-19T23:43:19;16.25;;;4.20;;
76332;SDS011;71254;53.010;6.508;2023-11-19T23:45:45;16.63;;;4.05;;
76332;SDS011;71254;53.010;6.508;2023-11-19T23:48:10;16.70;;;4.10;;
76332;SDS011;71254;53.010;6.508;2023-11-19T23:50:36;19.30;;;4.00;;
76332;SDS011;71254;53.010;6.508;2023-11-19T23:53:03;14.07;;;4.25;;
76332;SDS011;71254;53.010;6.508;2023-11-19T23:55:34;14.02;;;4.50;;
76332;SDS011;71254;53.010;6.508;2023-11-19T23:58:00;15.82;;;4.47;;
